Terminal Aerodrome Forecast
Issued by NWS Charleston, WV

Current Version | Previous Version | Graphics & Text | Print | Product List | Glossary On
Versions: 1 2 3 4 5 6 7 8 9 10 11 12 13 14 15 16 17 18 19 20 21 22 23 24 25 26 27 28 29 30 31
000
FTUS41 KRLX 010853 AAB
TAFBKW
TAF AMD
KBKW 010853Z 0109/0206 24004KT 1SM BR OVC002
     FM011300 VRB03KT 4SM BR SCT013
     FM011500 19004KT P6SM FEW050=

USA.gov is the U.S. government's official web portal to all federal, state and local government web resources and services.